Terminal Aerodrome Forecast
Issued by NWS

Home | Current Version | Previous Version | Text Only | Print | Product List | Glossary On
Versions: 1 2 3 4 5 6 7 8 9 10 11 12 13 14 15 16 17 18 19 20 21
000
FTUS46 KOTX 090440 AAC
TAFMWH
TAF AMD
KMWH 090440Z 0905/0924 03007KT 6SM -SN OVC040
     FM090600 05012KT 1 1/2SM -SN OVC016
      TEMPO 0906/0908 1SM -SN BKN008 OVC015
     FM090800 03008KT P6SM VCSH OVC020
     FM091200 03005KT P6SM OVC050
     FM092000 05006KT P6SM VCSH OVC035=

USA.gov is the U.S. government's official web portal to all federal, state and local government web resources and services.